createdAt,value
2024-02-28T00:01:52.476Z,28.90
2024-02-28T00:04:20.129Z,28.80
2024-02-28T00:06:47.779Z,28.00
2024-02-28T00:09:15.489Z,26.10
2024-02-28T00:11:43.109Z,28.30
2024-02-28T00:14:11.088Z,27.50
2024-02-28T00:16:38.740Z,29.30
2024-02-28T00:19:06.303Z,28.30
2024-02-28T00:21:33.881Z,28.10
2024-02-28T00:24:01.415Z,31.50
2024-02-28T00:26:30.910Z,31.90
2024-02-28T00:28:59.817Z,28.00
2024-02-28T00:31:27.476Z,29.70
2024-02-28T00:33:55.071Z,30.80
2024-02-28T00:36:23.103Z,30.40
2024-02-28T00:38:50.765Z,34.00
2024-02-28T00:41:18.225Z,32.10
2024-02-28T00:43:45.886Z,31.70
2024-02-28T00:46:13.710Z,30.90
2024-02-28T00:48:41.564Z,31.10
2024-02-28T00:51:09.188Z,32.40
2024-02-28T00:53:37.143Z,30.20
2024-02-28T00:56:04.713Z,31.30
2024-02-28T00:58:32.259Z,29.00
2024-02-28T01:00:59.963Z,30.30
2024-02-28T01:03:27.613Z,31.10
2024-02-28T01:05:55.343Z,32.50
2024-02-28T01:08:22.902Z,33.20
2024-02-28T01:10:50.574Z,29.90
2024-02-28T01:13:18.430Z,29.50
2024-02-28T01:15:46.090Z,28.00
2024-02-28T01:18:13.978Z,28.90
2024-02-28T01:20:41.624Z,28.50
2024-02-28T01:23:09.277Z,30.00
2024-02-28T01:25:36.841Z,29.80
2024-02-28T01:28:04.501Z,30.00
2024-02-28T01:30:32.099Z,31.40
2024-02-28T01:32:59.678Z,27.60
2024-02-28T01:35:27.696Z,28.30
2024-02-28T01:37:55.360Z,27.70
2024-02-28T01:40:23.015Z,30.80
2024-02-28T01:42:50.770Z,29.50
2024-02-28T01:45:18.478Z,31.60
2024-02-28T01:47:46.010Z,30.80
2024-02-28T01:50:13.685Z,31.70
2024-02-28T01:52:41.732Z,32.80
2024-02-28T01:55:09.395Z,30.90
2024-02-28T01:57:37.097Z,32.00
2024-02-28T02:00:04.843Z,29.60
2024-02-28T02:02:32.483Z,31.20
2024-02-28T02:05:00.071Z,28.60
2024-02-28T02:07:27.599Z,28.60
2024-02-28T02:09:55.216Z,30.00
2024-02-28T02:12:22.936Z,29.50
2024-02-28T02:14:50.591Z,29.30
2024-02-28T02:17:18.465Z,34.50
2024-02-28T02:19:46.154Z,34.40
2024-02-28T02:22:13.869Z,34.30
2024-02-28T02:24:41.477Z,30.20
2024-02-28T02:27:09.092Z,30.50
2024-02-28T02:29:36.646Z,31.40
2024-02-28T02:32:04.222Z,31.20
2024-02-28T02:34:31.881Z,31.40
2024-02-28T02:36:59.502Z,31.40
2024-02-28T02:39:27.265Z,31.30
2024-02-28T02:41:55.164Z,26.40
2024-02-28T02:44:22.826Z,28.70
2024-02-28T02:46:50.378Z,30.60
2024-02-28T02:49:18.051Z,26.70
2024-02-28T02:51:45.631Z,28.00
2024-02-28T02:54:13.400Z,26.20
2024-02-28T02:56:41.134Z,27.50
2024-02-28T02:59:08.692Z,26.60
2024-02-28T03:01:36.265Z,25.60
2024-02-28T03:04:04.218Z,27.10
2024-02-28T03:06:31.892Z,27.20
2024-02-28T03:08:59.438Z,27.80
2024-02-28T03:11:27.164Z,27.20
2024-02-28T03:13:54.772Z,27.60
2024-02-28T03:16:22.323Z,27.70
2024-02-28T03:18:49.916Z,28.60
2024-02-28T03:21:17.546Z,26.80
2024-02-28T03:23:45.098Z,25.50
2024-02-28T03:26:13.060Z,27.40
2024-02-28T03:28:40.624Z,27.30
2024-02-28T03:31:08.181Z,28.60
2024-02-28T03:33:35.879Z,26.30
2024-02-28T03:36:03.510Z,27.90
2024-02-28T03:38:31.070Z,24.90
2024-02-28T03:40:58.726Z,26.20
2024-02-28T03:43:26.289Z,27.60
2024-02-28T03:45:54.266Z,24.60
2024-02-28T03:48:21.895Z,24.50
2024-02-28T03:50:49.775Z,25.50
2024-02-28T03:53:17.342Z,25.40
2024-02-28T03:55:44.905Z,26.30
2024-02-28T03:58:12.458Z,25.20
2024-02-28T04:00:40.112Z,27.00
2024-02-28T04:03:07.883Z,24.10
2024-02-28T04:05:35.855Z,25.10
2024-02-28T04:08:03.413Z,26.00
2024-02-28T04:10:30.981Z,27.80
2024-02-28T04:12:58.707Z,30.70
2024-02-28T04:15:26.421Z,31.80
2024-02-28T04:17:54.197Z,33.90
2024-02-28T04:20:21.711Z,30.10
2024-02-28T04:22:49.282Z,27.00
2024-02-28T04:25:16.937Z,25.60
2024-02-28T04:27:44.530Z,26.20
2024-02-28T04:30:12.261Z,28.50
2024-02-28T04:32:39.864Z,27.80
2024-02-28T04:35:07.489Z,26.60
2024-02-28T04:37:35.038Z,25.80
2024-02-28T04:40:02.671Z,23.60
2024-02-28T04:42:30.387Z,26.60
2024-02-28T04:44:58.015Z,26.60
2024-02-28T04:47:30.084Z,25.50
2024-02-28T04:50:04.808Z,26.00
2024-02-28T04:52:32.372Z,27.30
2024-02-28T04:55:00.083Z,26.70
2024-02-28T04:57:27.568Z,26.10
2024-02-28T04:59:55.352Z,28.80
2024-02-28T05:02:22.931Z,25.70
2024-02-28T05:04:50.504Z,27.30
2024-02-28T05:07:18.148Z,27.20
2024-02-28T05:09:46.141Z,25.80
2024-02-28T05:12:13.906Z,26.40
2024-02-28T05:14:41.543Z,27.20
2024-02-28T05:17:09.086Z,26.10
2024-02-28T05:19:36.648Z,26.30
2024-02-28T05:22:04.351Z,24.30
2024-02-28T05:24:31.994Z,25.00
2024-02-28T05:26:59.547Z,27.10
2024-02-28T05:29:27.196Z,29.10
2024-02-28T05:31:55.053Z,27.50
2024-02-28T05:34:22.618Z,26.10
2024-02-28T05:36:50.208Z,27.60
2024-02-28T05:39:17.899Z,24.80
2024-02-28T05:41:45.618Z,27.90
2024-02-28T05:44:13.265Z,26.10
2024-02-28T05:46:40.930Z,30.40
2024-02-28T05:49:08.484Z,31.00
2024-02-28T05:51:36.494Z,40.70
2024-02-28T05:54:04.112Z,30.80
2024-02-28T05:56:31.782Z,26.50
2024-02-28T05:58:59.331Z,26.80
2024-02-28T06:01:27.018Z,25.20
2024-02-28T06:03:54.720Z,28.30
2024-02-28T06:06:22.538Z,27.60
2024-02-28T06:08:50.193Z,25.70
2024-02-28T06:11:17.775Z,27.80
2024-02-28T06:13:45.707Z,25.80
2024-02-28T06:16:13.374Z,23.90
2024-02-28T06:18:41.054Z,26.80
2024-02-28T06:21:08.694Z,25.70
2024-02-28T06:23:36.366Z,25.70
2024-02-28T06:26:04.018Z,26.50
2024-02-28T06:28:31.584Z,24.90
2024-02-28T06:30:59.414Z,24.10
2024-02-28T06:33:27.263Z,25.50
2024-02-28T06:35:55.384Z,22.60
2024-02-28T06:38:22.992Z,26.60
2024-02-28T06:40:50.722Z,26.00
2024-02-28T06:43:18.362Z,26.70
2024-02-28T06:45:45.951Z,26.80
2024-02-28T06:48:13.729Z,24.90
2024-02-28T06:50:41.349Z,26.30
2024-02-28T06:53:09.321Z,28.90
2024-02-28T06:55:36.871Z,29.60
2024-02-28T06:58:04.679Z,27.30
2024-02-28T07:00:32.237Z,25.90
2024-02-28T07:02:59.853Z,24.60
2024-02-28T07:05:27.414Z,24.30
2024-02-28T07:07:55.065Z,25.70
2024-02-28T07:10:22.727Z,27.80
2024-02-28T07:12:50.342Z,25.20
2024-02-28T07:15:18.517Z,26.00
2024-02-28T07:17:46.164Z,28.30
2024-02-28T07:20:13.787Z,24.10
2024-02-28T07:22:41.365Z,25.70
2024-02-28T07:25:09.109Z,24.20
2024-02-28T07:27:36.796Z,23.60
2024-02-28T07:30:04.433Z,26.00
2024-02-28T07:32:31.994Z,40.60
2024-02-28T07:34:59.653Z,29.40
2024-02-28T07:37:27.127Z,26.80
2024-02-28T07:39:54.971Z,25.40
2024-02-28T07:42:22.673Z,24.20
2024-02-28T07:44:50.400Z,22.90
2024-02-28T07:47:17.968Z,23.40
2024-02-28T07:49:45.624Z,24.50
2024-02-28T07:52:13.183Z,22.90
2024-02-28T07:54:40.884Z,24.30
2024-02-28T07:57:08.607Z,23.60
2024-02-28T07:59:36.169Z,25.30
2024-02-28T08:02:03.932Z,24.50
2024-02-28T08:04:31.690Z,20.30
2024-02-28T08:06:59.507Z,20.30
2024-02-28T08:09:27.068Z,21.30
2024-02-28T08:11:54.804Z,21.80
2024-02-28T08:14:22.342Z,21.20
2024-02-28T08:16:50.002Z,21.60
2024-02-28T08:19:17.970Z,21.70
2024-02-28T08:21:45.613Z,25.30
2024-02-28T08:24:13.291Z,22.10
2024-02-28T08:26:40.947Z,21.70
2024-02-28T08:29:08.405Z,22.00
2024-02-28T08:31:35.971Z,22.80
2024-02-28T08:34:03.613Z,23.60
2024-02-28T08:36:31.434Z,24.20
2024-02-28T08:38:59.049Z,23.70
2024-02-28T08:41:26.712Z,22.80
2024-02-28T08:43:54.274Z,23.50
2024-02-28T08:46:21.847Z,23.20
2024-02-28T08:48:49.524Z,23.70
2024-02-28T08:51:17.171Z,22.90
2024-02-28T08:53:44.818Z,22.50
2024-02-28T08:56:12.401Z,21.00
2024-02-28T08:58:40.469Z,19.20
2024-02-28T09:01:08.105Z,23.30
2024-02-28T09:03:35.901Z,21.60
2024-02-28T09:06:03.529Z,20.90
2024-02-28T09:08:31.101Z,21.20
2024-02-28T09:10:58.765Z,24.00
2024-02-28T09:13:26.414Z,21.30
2024-02-28T09:15:55.688Z,20.50
2024-02-28T09:18:23.599Z,21.20
2024-02-28T09:20:51.549Z,21.70
2024-02-28T09:23:19.223Z,22.10
2024-02-28T09:25:46.779Z,21.60
2024-02-28T09:28:14.425Z,23.20
2024-02-28T09:30:46.428Z,21.70
2024-02-28T09:33:20.732Z,23.60
2024-02-28T09:35:48.576Z,23.70
2024-02-28T09:38:16.141Z,21.60
2024-02-28T09:40:43.794Z,21.80
2024-02-28T09:43:11.543Z,23.80
2024-02-28T09:45:39.245Z,24.00
2024-02-28T09:48:06.919Z,22.90
2024-02-28T09:50:34.556Z,23.00
2024-02-28T09:53:09.906Z,21.50
2024-02-28T09:55:38.779Z,22.70
2024-02-28T09:58:06.677Z,21.60
2024-02-28T10:00:34.560Z,22.00
2024-02-28T10:03:02.413Z,21.10
2024-02-28T10:05:30.401Z,22.80
2024-02-28T10:07:58.104Z,22.30
2024-02-28T10:10:25.767Z,21.90
2024-02-28T10:12:53.381Z,19.20
2024-02-28T10:15:21.138Z,21.20
2024-02-28T10:17:48.769Z,25.00
2024-02-28T10:20:16.717Z,23.00
2024-02-28T10:22:44.278Z,19.40
2024-02-28T10:25:12.001Z,20.50
2024-02-28T10:27:39.660Z,20.80
2024-02-28T10:30:07.382Z,18.20
2024-02-28T10:32:35.151Z,18.80
2024-02-28T10:35:02.779Z,18.20
2024-02-28T10:37:30.148Z,17.50
2024-02-28T10:39:57.829Z,21.30
2024-02-28T10:42:25.906Z,17.90
2024-02-28T10:45:00.977Z,22.40
2024-02-28T10:47:34.941Z,20.80
2024-02-28T10:50:02.590Z,19.60
2024-02-28T10:52:30.243Z,19.40
2024-02-28T10:54:57.874Z,18.00
2024-02-28T10:57:25.393Z,19.10
2024-02-28T10:59:53.019Z,17.70
2024-02-28T11:02:20.681Z,19.20
2024-02-28T11:04:48.550Z,20.40
2024-02-28T11:07:16.212Z,17.40
2024-02-28T11:09:43.809Z,18.00
2024-02-28T11:12:11.530Z,16.10
2024-02-28T11:14:39.089Z,16.30
2024-02-28T11:17:06.937Z,17.70
2024-02-28T11:19:35.885Z,18.10
2024-02-28T11:22:04.246Z,18.20
2024-02-28T11:24:32.030Z,16.70
2024-02-28T11:26:59.862Z,16.70
2024-02-28T11:29:27.514Z,18.00
2024-02-28T11:31:55.081Z,16.10
2024-02-28T11:34:22.791Z,14.10
2024-02-28T11:36:50.525Z,17.50
2024-02-28T11:39:18.266Z,16.60
2024-02-28T11:41:45.831Z,15.90
2024-02-28T11:44:13.489Z,15.80
2024-02-28T11:46:41.049Z,16.90
2024-02-28T11:49:08.656Z,13.60
2024-02-28T11:51:36.277Z,15.40
2024-02-28T11:54:03.925Z,21.10
2024-02-28T11:56:31.588Z,17.70
2024-02-28T11:58:59.140Z,16.70
2024-02-28T12:01:26.915Z,18.30
2024-02-28T12:03:54.718Z,14.80
2024-02-28T12:06:22.459Z,15.00
2024-02-28T12:08:50.302Z,14.60
2024-02-28T12:11:17.929Z,13.50
2024-02-28T12:13:47.338Z,14.30
2024-02-28T12:16:16.361Z,15.20
2024-02-28T12:18:44.163Z,14.30
2024-02-28T12:21:11.889Z,13.60
2024-02-28T12:23:39.556Z,13.80
2024-02-28T12:26:07.102Z,13.60
2024-02-28T12:28:34.668Z,13.20
2024-02-28T12:31:02.622Z,13.50
2024-02-28T12:33:30.455Z,11.00
2024-02-28T12:35:58.069Z,11.90
2024-02-28T12:38:25.920Z,11.90
2024-02-28T12:40:53.577Z,12.60
2024-02-28T12:43:21.141Z,12.30
2024-02-28T12:45:48.936Z,12.20
2024-02-28T12:48:16.589Z,11.70
2024-02-28T12:50:44.536Z,12.70
2024-02-28T12:53:12.202Z,14.20
2024-02-28T12:55:39.757Z,13.80
2024-02-28T12:58:07.442Z,14.60
2024-02-28T13:00:35.375Z,15.30
2024-02-28T13:03:03.162Z,14.30
2024-02-28T13:05:32.082Z,16.10
2024-02-28T13:08:00.323Z,13.20
2024-02-28T13:10:27.872Z,13.60
2024-02-28T13:12:55.702Z,14.20
2024-02-28T13:15:23.427Z,11.40
2024-02-28T13:17:51.161Z,13.40
2024-02-28T13:20:18.826Z,12.80
2024-02-28T13:22:46.383Z,13.00
2024-02-28T13:25:14.076Z,12.80
2024-02-28T13:27:41.625Z,13.50
2024-02-28T13:30:09.678Z,12.10
2024-02-28T13:32:37.261Z,11.20
2024-02-28T13:35:04.796Z,11.00
2024-02-28T13:37:32.154Z,11.00
2024-02-28T13:39:59.856Z,11.10
2024-02-28T13:42:27.595Z,11.20
2024-02-28T13:44:55.236Z,10.30
2024-02-28T13:47:22.828Z,11.00
2024-02-28T13:49:50.351Z,11.60
2024-02-28T13:52:18.380Z,10.60
2024-02-28T13:54:46.004Z,12.20
2024-02-28T13:57:13.654Z,12.40
2024-02-28T13:59:41.299Z,13.50
2024-02-28T14:02:09.008Z,12.30
2024-02-28T14:04:36.845Z,11.90
2024-02-28T14:07:04.731Z,10.10
2024-02-28T14:09:32.496Z,14.60
2024-02-28T14:12:00.135Z,10.80
2024-02-28T14:14:27.993Z,9.80
2024-02-28T14:16:55.657Z,10.00
2024-02-28T14:19:23.438Z,8.80
2024-02-28T14:21:50.986Z,9.20
2024-02-28T14:24:18.629Z,8.90
2024-02-28T14:26:46.237Z,8.90
2024-02-28T14:29:13.861Z,8.50
2024-02-28T14:31:41.522Z,8.40
2024-02-28T14:34:09.184Z,10.20
2024-02-28T14:36:37.285Z,9.40
2024-02-28T14:39:04.822Z,11.10
2024-02-28T14:41:32.465Z,37.50
2024-02-28T14:44:00.035Z,26.60
2024-02-28T14:46:27.685Z,14.90
2024-02-28T14:48:55.298Z,11.10
2024-02-28T14:51:23.016Z,9.20
2024-02-28T14:53:50.890Z,11.40
2024-02-28T14:56:18.541Z,10.20
2024-02-28T14:58:46.095Z,9.60
2024-02-28T15:01:13.858Z,9.40
2024-02-28T15:03:41.647Z,11.70
2024-02-28T15:06:09.384Z,11.60
2024-02-28T15:08:36.950Z,13.80
2024-02-28T15:11:04.698Z,14.60
2024-02-28T15:13:32.486Z,8.30
2024-02-28T15:16:00.419Z,10.80
2024-02-28T15:18:28.186Z,11.90
2024-02-28T15:20:57.688Z,14.80
2024-02-28T15:23:29.253Z,12.10
2024-02-28T15:25:58.484Z,13.10
2024-02-28T15:28:26.022Z,11.20
2024-02-28T15:30:53.767Z,11.40
2024-02-28T15:33:21.737Z,11.30
2024-02-28T15:35:49.422Z,9.50
2024-02-28T15:38:17.119Z,10.20
2024-02-28T15:40:44.842Z,9.90
2024-02-28T15:43:12.565Z,10.50
2024-02-28T15:45:40.216Z,10.60
2024-02-28T15:48:07.997Z,10.60
2024-02-28T15:50:35.687Z,11.30
2024-02-28T15:53:03.369Z,10.30
2024-02-28T15:55:31.323Z,12.90
2024-02-28T15:57:58.910Z,21.60
2024-02-28T16:00:26.559Z,12.30
2024-02-28T16:02:54.243Z,11.30
2024-02-28T16:05:21.867Z,10.50
2024-02-28T16:07:49.630Z,10.30
2024-02-28T16:10:17.179Z,43.80
2024-02-28T16:12:44.769Z,87.70
2024-02-28T16:15:12.648Z,42.60
2024-02-28T16:17:40.429Z,27.20
2024-02-28T16:20:08.038Z,21.70
2024-02-28T16:22:35.810Z,19.60
2024-02-28T16:25:03.560Z,21.80
2024-02-28T16:27:31.129Z,29.60
2024-02-28T16:29:58.687Z,19.50
2024-02-28T16:32:26.238Z,20.00
2024-02-28T16:34:53.807Z,27.70
2024-02-28T16:37:21.353Z,20.90
2024-02-28T16:39:50.397Z,22.50
2024-02-28T16:42:18.109Z,20.10
2024-02-28T16:44:45.676Z,19.40
2024-02-28T16:47:13.242Z,26.50
2024-02-28T16:49:40.904Z,27.00
2024-02-28T16:52:08.571Z,20.40
2024-02-28T16:54:36.361Z,21.00
2024-02-28T16:57:03.988Z,20.20
2024-02-28T16:59:31.951Z,17.60
2024-02-28T17:01:59.638Z,15.00
2024-02-28T17:04:27.398Z,16.20
2024-02-28T17:06:54.985Z,17.30
2024-02-28T17:09:22.833Z,21.10
2024-02-28T17:11:50.459Z,25.10
2024-02-28T17:14:18.120Z,22.40
2024-02-28T17:16:45.788Z,20.60
2024-02-28T17:19:13.382Z,19.50
2024-02-28T17:21:41.392Z,23.60
2024-02-28T17:24:09.075Z,33.20
2024-02-28T17:26:39.338Z,22.10
2024-02-28T17:29:09.057Z,19.80
2024-02-28T17:31:37.018Z,20.50
2024-02-28T17:34:04.678Z,22.70
2024-02-28T17:36:32.433Z,17.10
2024-02-28T17:39:00.058Z,20.30
2024-02-28T17:41:28.020Z,18.90
2024-02-28T17:43:55.586Z,18.90
2024-02-28T17:46:23.267Z,22.20
2024-02-28T17:48:50.819Z,19.40
2024-02-28T17:51:18.471Z,20.50
2024-02-28T17:53:46.033Z,21.50
2024-02-28T17:56:13.687Z,24.30
2024-02-28T17:58:41.250Z,23.80
2024-02-28T18:01:09.263Z,30.80
2024-02-28T18:03:37.020Z,24.70
2024-02-28T18:06:04.670Z,25.20
2024-02-28T18:08:32.405Z,28.90
2024-02-28T18:10:59.995Z,23.70
2024-02-28T18:13:27.721Z,22.00
2024-02-28T18:15:55.438Z,25.80
2024-02-28T18:18:23.229Z,31.40
2024-02-28T18:20:51.043Z,35.50
2024-02-28T18:23:24.641Z,30.50
2024-02-28T18:25:58.222Z,42.90
2024-02-28T18:28:25.771Z,45.20
2024-02-28T18:30:53.450Z,31.60
2024-02-28T18:33:21.159Z,36.60
2024-02-28T18:35:48.863Z,32.20
2024-02-28T18:38:16.561Z,25.40
2024-02-28T18:40:44.387Z,23.30
2024-02-28T18:43:11.965Z,38.70
2024-02-28T18:45:39.546Z,21.60
2024-02-28T18:48:07.257Z,25.20
2024-02-28T18:50:35.072Z,28.90
2024-02-28T18:53:02.590Z,27.20
2024-02-28T18:55:30.264Z,28.80
2024-02-28T18:57:57.932Z,30.30
2024-02-28T19:00:26.049Z,36.50
2024-02-28T19:02:53.858Z,28.20
2024-02-28T19:05:21.423Z,26.00
2024-02-28T19:07:49.073Z,20.70
2024-02-28T19:10:16.697Z,21.80
2024-02-28T19:12:44.527Z,25.70
2024-02-28T19:15:12.165Z,12.80
2024-02-28T19:17:39.556Z,15.60
2024-02-28T19:20:07.290Z,15.70
2024-02-28T19:22:34.845Z,20.50
2024-02-28T19:25:02.801Z,13.90
2024-02-28T19:27:30.697Z,14.50
2024-02-28T19:29:58.336Z,12.70
2024-02-28T19:32:25.924Z,10.00
2024-02-28T19:34:53.558Z,11.10
2024-02-28T19:37:21.224Z,11.00
2024-02-28T19:39:48.813Z,10.50
2024-02-28T19:42:16.337Z,12.60
2024-02-28T19:44:43.897Z,12.50
2024-02-28T19:47:11.546Z,12.50
2024-02-28T19:49:39.116Z,9.90
2024-02-28T19:52:06.759Z,8.80
2024-02-28T19:54:34.693Z,9.00
2024-02-28T19:57:02.416Z,9.00
2024-02-28T19:59:30.067Z,9.90
2024-02-28T20:01:57.805Z,11.50
2024-02-28T20:04:25.612Z,10.00
2024-02-28T20:06:53.155Z,8.30
2024-02-28T20:09:20.808Z,8.00
2024-02-28T20:11:48.394Z,8.30
2024-02-28T20:14:16.031Z,7.40
2024-02-28T20:16:43.600Z,9.50
2024-02-28T20:19:11.194Z,9.80
2024-02-28T20:21:38.932Z,8.90
2024-02-28T20:24:06.585Z,7.70
2024-02-28T20:26:34.129Z,7.80
2024-02-28T20:29:02.106Z,7.80
2024-02-28T20:31:29.654Z,9.20
2024-02-28T20:33:57.321Z,7.70
2024-02-28T20:36:25.118Z,8.90
2024-02-28T20:38:52.748Z,8.80
2024-02-28T20:41:20.412Z,9.40
2024-02-28T20:43:47.973Z,9.20
2024-02-28T20:46:15.673Z,9.40
2024-02-28T20:48:43.780Z,10.50
2024-02-28T20:51:11.461Z,9.50
2024-02-28T20:53:39.028Z,9.30
2024-02-28T20:56:06.679Z,8.70
2024-02-28T20:58:34.248Z,10.50
2024-02-28T21:01:01.942Z,9.20
2024-02-28T21:03:29.526Z,10.60
2024-02-28T21:05:57.532Z,9.90
2024-02-28T21:08:25.104Z,8.70
2024-02-28T21:10:52.826Z,10.80
2024-02-28T21:13:20.624Z,9.90
2024-02-28T21:15:48.210Z,10.30
2024-02-28T21:18:15.840Z,8.80
2024-02-28T21:20:43.406Z,10.30
2024-02-28T21:23:10.978Z,10.70
2024-02-28T21:25:38.527Z,11.20
2024-02-28T21:28:06.151Z,8.90
2024-02-28T21:30:34.021Z,10.50
2024-02-28T21:33:01.731Z,12.40
2024-02-28T21:35:29.364Z,13.60
2024-02-28T21:37:56.954Z,11.60
2024-02-28T21:40:24.489Z,12.80
2024-02-28T21:42:52.087Z,11.90
2024-02-28T21:45:19.719Z,13.00
2024-02-28T21:47:47.411Z,11.40
2024-02-28T21:50:15.022Z,11.30
2024-02-28T21:52:42.588Z,10.60
2024-02-28T21:55:10.202Z,12.30
2024-02-28T21:57:37.774Z,12.10
2024-02-28T22:00:05.464Z,11.70
2024-02-28T22:02:33.045Z,12.20
2024-02-28T22:05:00.706Z,11.60
2024-02-28T22:07:28.357Z,11.50
2024-02-28T22:09:56.298Z,10.90
2024-02-28T22:12:24.080Z,12.10
2024-02-28T22:14:51.639Z,12.00
2024-02-28T22:17:19.198Z,10.90
2024-02-28T22:19:46.752Z,11.70
2024-02-28T22:22:14.336Z,13.60
2024-02-28T22:24:42.169Z,13.90
2024-02-28T22:27:09.863Z,14.20
2024-02-28T22:29:37.506Z,12.50
2024-02-28T22:32:05.490Z,12.00
2024-02-28T22:34:33.151Z,13.70
2024-02-28T22:37:00.743Z,12.40
2024-02-28T22:39:28.787Z,12.90
2024-02-28T22:41:56.422Z,12.50
2024-02-28T22:44:23.995Z,12.50
2024-02-28T22:46:51.650Z,13.10
2024-02-28T22:49:19.234Z,13.30
2024-02-28T22:51:47.136Z,12.40
2024-02-28T22:54:14.831Z,13.00
2024-02-28T22:56:42.495Z,12.80
2024-02-28T22:59:10.153Z,13.70
2024-02-28T23:01:37.869Z,12.00
2024-02-28T23:04:05.713Z,13.20
2024-02-28T23:06:33.376Z,13.60
2024-02-28T23:09:02.253Z,12.80
2024-02-28T23:11:29.807Z,11.80
2024-02-28T23:13:57.756Z,10.90
2024-02-28T23:16:25.431Z,11.30
2024-02-28T23:18:53.040Z,10.90
2024-02-28T23:21:20.747Z,12.10
2024-02-28T23:23:48.310Z,9.60
2024-02-28T23:26:15.978Z,9.60
2024-02-28T23:28:43.649Z,11.80
2024-02-28T23:31:11.385Z,12.50
2024-02-28T23:33:39.182Z,11.50
2024-02-28T23:36:07.126Z,13.00
2024-02-28T23:38:34.683Z,10.50
2024-02-28T23:41:02.246Z,11.70
2024-02-28T23:43:29.913Z,12.10
2024-02-28T23:45:57.525Z,12.40
2024-02-28T23:48:25.221Z,12.20
2024-02-28T23:50:52.871Z,11.30
2024-02-28T23:53:20.999Z,11.80
2024-02-28T23:55:48.622Z,11.70
2024-02-28T23:58:16.355Z,12.00
